Time;durP1;ratioP1;P1;durP2;ratioP2;P2;SDS_P1;SDS_P2;PMS_P1;PMS_P2;Temp;Humidity;BMP_temperature;BMP_pressure;BME280_temperature;BME280_humidity;BME280_pressure;Samples;Min_cycle;Max_cycle;Signal;HPM_P1;HPM_P2
2022/02/23 00:00:28;;;;;;;9.15;3.67;;;9.30;96.60;;;;;;5040683;28;20029;-62
2022/02/23 00:02:53;;;;;;;11.25;3.05;;;9.30;96.60;;;;;;5050904;28;20133;-61
2022/02/23 00:05:19;;;;;;;11.70;2.92;;;9.30;96.50;;;;;;5048934;28;20027;-62
2022/02/23 00:07:44;;;;;;;9.82;3.03;;;9.30;96.40;;;;;;5050753;28;20381;-62
2022/02/23 00:10:10;;;;;;;9.57;2.63;;;9.30;96.30;;;;;;5038604;28;20025;-62
2022/02/23 00:12:36;;;;;;;8.75;2.55;;;9.30;96.10;;;;;;5038969;28;20030;-62
2022/02/23 00:15:03;;;;;;;10.43;2.13;;;9.30;96.00;;;;;;5037310;28;20393;-62
2022/02/23 00:17:28;;;;;;;10.88;2.50;;;9.20;96.00;;;;;;5050701;28;20061;-62
2022/02/23 00:19:55;;;;;;;9.52;2.95;;;9.30;96.00;;;;;;5048956;28;20104;-63
2022/02/23 00:22:21;;;;;;;13.35;3.92;;;9.30;95.80;;;;;;5050807;28;20025;-63
2022/02/23 00:24:47;;;;;;;11.25;2.45;;;9.30;95.70;;;;;;5048715;28;20108;-63
2022/02/23 00:27:13;;;;;;;13.40;3.33;;;9.30;95.70;;;;;;5033459;28;20113;-63
2022/02/23 00:29:38;;;;;;;14.48;3.88;;;9.20;95.40;;;;;;5033704;28;20053;-63
2022/02/23 00:32:05;;;;;;;16.77;4.20;;;9.20;95.60;;;;;;5051018;28;20668;-62
2022/02/23 00:34:30;;;;;;;14.55;3.55;;;9.20;95.80;;;;;;5051882;28;20029;-63
2022/02/23 00:36:56;;;;;;;12.13;2.97;;;9.10;95.40;;;;;;5055259;28;20380;-63
2022/02/23 00:39:23;;;;;;;13.35;3.00;;;9.10;95.40;;;;;;5053502;28;20112;-63
2022/02/23 00:41:49;;;;;;;13.52;2.90;;;9.20;95.40;;;;;;5051057;28;20032;-62
2022/02/23 00:44:14;;;;;;;21.70;4.95;;;9.10;95.30;;;;;;5036392;28;20025;-63
2022/02/23 00:46:40;;;;;;;15.60;4.32;;;9.20;95.20;;;;;;5035422;28;20022;-63
2022/02/23 00:49:06;;;;;;;17.30;4.70;;;9.10;95.10;;;;;;5035043;28;20101;-63
2022/02/23 00:51:32;;;;;;;9.48;2.90;;;9.00;95.20;;;;;;5032602;28;20080;-62
2022/02/23 00:53:58;;;;;;;6.03;2.35;;;8.80;95.60;;;;;;5034898;28;20049;-63
2022/02/23 00:56:24;;;;;;;5.15;1.75;;;8.70;95.70;;;;;;5051780;28;20481;-63
2022/02/23 00:58:50;;;;;;;8.85;1.88;;;8.60;96.20;;;;;;5039325;28;20030;-62
2022/02/23 01:01:15;;;;;;;4.93;2.00;;;8.50;96.20;;;;;;5049979;28;20066;-62
2022/02/23 01:03:41;;;;;;;9.18;1.83;;;8.40;96.30;;;;;;5051860;28;20040;-62
2022/02/23 01:06:06;;;;;;;7.85;2.65;;;8.40;96.30;;;;;;5052857;28;20468;-63
2022/02/23 01:08:32;;;;;;;9.48;2.20;;;8.30;96.30;;;;;;5044569;28;20428;-63
2022/02/23 01:10:57;;;;;;;11.60;2.70;;;8.20;96.30;;;;;;5051688;28;20021;-63
2022/02/23 01:13:23;;;;;;;12.57;2.80;;;8.20;96.40;;;;;;5047467;28;20524;-63
2022/02/23 01:15:49;;;;;;;13.98;3.60;;;8.10;96.40;;;;;;5043340;28;20029;-62
2022/02/23 01:18:14;;;;;;;15.55;3.50;;;8.20;96.30;;;;;;5041549;28;20025;-63
2022/02/23 01:20:40;;;;;;;13.55;2.60;;;8.10;96.50;;;;;;5052539;28;20021;-62
2022/02/23 01:23:06;;;;;;;21.20;5.25;;;8.10;96.30;;;;;;5058000;28;20029;-62
2022/02/23 01:25:31;;;;;;;13.65;2.58;;;8.00;96.30;;;;;;5061688;28;20026;-62
2022/02/23 01:28:02;;;;;;;12.50;2.88;;;8.00;96.20;;;;;;5059534;28;20029;-63
2022/02/23 01:30:28;;;;;;;15.93;4.22;;;8.10;96.20;;;;;;5055566;28;20052;-62
2022/02/23 01:32:54;;;;;;;13.90;2.55;;;8.00;96.20;;;;;;5040259;28;20028;-63
2022/02/23 01:35:19;;;;;;;14.75;2.67;;;8.00;96.20;;;;;;5051674;28;20037;-63
2022/02/23 01:37:45;;;;;;;13.90;3.47;;;7.90;96.10;;;;;;5058936;28;20021;-63
2022/02/23 01:40:11;;;;;;;15.32;3.90;;;8.00;96.10;;;;;;5046588;28;20056;-63
2022/02/23 01:42:37;;;;;;;18.80;3.40;;;8.00;96.10;;;;;;5057175;28;20079;-63
2022/02/23 01:45:03;;;;;;;14.60;3.53;;;8.00;96.00;;;;;;5053147;28;20032;-64
2022/02/23 01:47:28;;;;;;;14.57;3.47;;;8.00;95.90;;;;;;5047948;28;20032;-64
2022/02/23 01:49:56;;;;;;;19.95;4.07;;;7.90;95.80;;;;;;5038684;28;20029;-63
2022/02/23 01:52:25;;;;;;;20.70;3.90;;;7.90;95.90;;;;;;5053593;28;20056;-63
2022/02/23 01:54:55;;;;;;;25.73;4.85;;;7.90;95.80;;;;;;5047936;28;20056;-63
2022/02/23 01:57:21;;;;;;;11.20;3.40;;;7.90;95.80;;;;;;5034217;28;20117;-63
2022/02/23 01:59:47;;;;;;;12.13;3.17;;;8.00;95.80;;;;;;5050945;28;20061;-65
2022/02/23 02:02:13;;;;;;;16.15;3.95;;;7.90;95.70;;;;;;5052872;28;20441;-64
2022/02/23 02:04:38;;;;;;;11.93;3.50;;;8.00;95.70;;;;;;5049387;28;20113;-64
2022/02/23 02:07:04;;;;;;;14.65;3.80;;;8.00;95.70;;;;;;5054044;28;20029;-64
2022/02/23 02:09:29;;;;;;;20.08;3.72;;;8.10;95.70;;;;;;5052064;28;20352;-64
2022/02/23 02:11:55;;;;;;;13.18;3.58;;;8.10;95.60;;;;;;5053527;28;20033;-62
2022/02/23 02:14:21;;;;;;;16.13;3.67;;;8.10;95.60;;;;;;5052132;28;20108;-62
2022/02/23 02:16:46;;;;;;;17.75;3.63;;;8.10;95.50;;;;;;5054107;28;20064;-63
2022/02/23 02:19:12;;;;;;;16.30;3.67;;;8.10;95.50;;;;;;5052639;28;20519;-62
2022/02/23 02:21:56;;;;;;;24.15;4.15;;;8.10;95.40;;;;;;5034132;28;20366;-62
2022/02/23 02:24:24;;;;;;;14.13;3.08;;;8.10;95.40;;;;;;5035924;28;20053;-62
2022/02/23 02:26:50;;;;;;;17.90;3.90;;;8.10;95.40;;;;;;5052077;28;20029;-62
2022/02/23 02:29:16;;;;;;;18.88;4.32;;;8.10;95.30;;;;;;5045519;28;20035;-62
2022/02/23 02:31:42;;;;;;;15.80;3.40;;;8.10;95.30;;;;;;5031568;28;20026;-62
2022/02/23 02:34:07;;;;;;;11.80;3.65;;;8.10;95.20;;;;;;5033662;28;20040;-62
2022/02/23 02:36:33;;;;;;;15.50;4.30;;;8.20;95.20;;;;;;5033069;28;20025;-62
2022/02/23 02:38:58;;;;;;;21.65;4.47;;;8.10;95.20;;;;;;5038685;28;20052;-62
2022/02/23 02:41:24;;;;;;;14.00;3.35;;;8.10;95.20;;;;;;5032736;28;20057;-62
2022/02/23 02:43:49;;;;;;;17.85;3.33;;;8.10;95.20;;;;;;5049660;28;20021;-62
2022/02/23 02:46:15;;;;;;;20.00;3.80;;;8.00;95.20;;;;;;5036895;28;20025;-62
2022/02/23 02:48:41;;;;;;;12.30;3.25;;;8.00;95.30;;;;;;5032858;28;20029;-63
2022/02/23 02:51:07;;;;;;;17.48;3.72;;;8.00;95.30;;;;;;5038144;28;20100;-62
2022/02/23 02:53:32;;;;;;;19.77;4.90;;;8.00;95.30;;;;;;5032246;28;20033;-63
2022/02/23 02:55:57;;;;;;;15.18;3.20;;;8.00;95.30;;;;;;5032903;28;20061;-62
2022/02/23 02:58:23;;;;;;;18.95;3.90;;;8.00;95.30;;;;;;5032493;28;20479;-63
2022/02/23 03:00:48;;;;;;;17.33;3.35;;;8.00;95.30;;;;;;5044720;28;20044;-63
2022/02/23 03:03:14;;;;;;;13.27;3.47;;;7.90;95.30;;;;;;5068352;28;20044;-63
2022/02/23 03:05:39;;;;;;;12.55;2.92;;;7.90;95.30;;;;;;5058588;28;20427;-63
2022/02/23 03:08:05;;;;;;;16.10;4.75;;;8.00;95.40;;;;;;5052262;28;20025;-62
2022/02/23 03:10:30;;;;;;;13.38;4.03;;;7.90;95.50;;;;;;5051259;28;20027;-63
2022/02/23 03:12:56;;;;;;;11.57;3.47;;;7.90;95.50;;;;;;5037276;28;20033;-63
2022/02/23 03:15:22;;;;;;;15.55;2.88;;;7.90;95.60;;;;;;5040172;28;20043;-63
2022/02/23 03:17:47;;;;;;;14.95;3.45;;;8.00;95.70;;;;;;5034101;28;20025;-63
2022/02/23 03:20:13;;;;;;;20.10;4.25;;;8.00;95.70;;;;;;5047911;28;20036;-63
2022/02/23 03:22:38;;;;;;;11.10;3.60;;;8.00;95.60;;;;;;5052051;28;20468;-62
2022/02/23 03:25:05;;;;;;;12.90;3.45;;;8.00;95.60;;;;;;5050884;28;20033;-62
2022/02/23 03:27:30;;;;;;;13.75;3.40;;;8.00;95.60;;;;;;5033143;28;20029;-63
2022/02/23 03:29:56;;;;;;;15.07;3.10;;;8.00;95.60;;;;;;5019859;28;20039;-63
2022/02/23 03:32:22;;;;;;;13.43;2.88;;;8.00;95.60;;;;;;5032543;28;20030;-62
2022/02/23 03:34:47;;;;;;;11.25;3.67;;;8.00;95.60;;;;;;5034999;28;20044;-62
2022/02/23 03:37:13;;;;;;;17.67;3.40;;;8.10;95.60;;;;;;5051820;28;20016;-62
2022/02/23 03:39:39;;;;;;;10.80;3.03;;;8.00;95.60;;;;;;5039277;28;20036;-63
2022/02/23 03:42:04;;;;;;;14.05;3.05;;;8.10;95.60;;;;;;5039778;28;20029;-62
2022/02/23 03:44:30;;;;;;;11.90;2.80;;;8.00;95.60;;;;;;5031263;28;22675;-62
2022/02/23 03:46:55;;;;;;;10.68;2.65;;;8.00;95.60;;;;;;5031780;28;20057;-62
2022/02/23 03:49:21;;;;;;;12.13;3.22;;;8.00;95.60;;;;;;5032697;28;20536;-63
2022/02/23 03:51:46;;;;;;;13.60;4.00;;;7.90;95.60;;;;;;5032250;28;20029;-63
2022/02/23 03:54:12;;;;;;;14.45;3.03;;;7.90;95.70;;;;;;5031160;28;20034;-63
2022/02/23 03:56:42;;;;;;;14.10;3.05;;;8.00;95.80;;;;;;5031551;28;20034;-63
2022/02/23 03:59:09;;;;;;;14.73;3.33;;;7.90;95.80;;;;;;5031239;28;20060;-62
2022/02/23 04:01:37;;;;;;;17.42;3.22;;;7.90;95.80;;;;;;5050118;28;20029;-62
2022/02/23 04:04:04;;;;;;;11.63;3.53;;;7.90;95.80;;;;;;5046053;28;20037;-63
2022/02/23 04:06:30;;;;;;;16.13;4.00;;;7.90;95.90;;;;;;5033065;28;20542;-62
2022/02/23 04:08:57;;;;;;;11.57;3.75;;;7.90;95.90;;;;;;5030871;28;20087;-62
2022/02/23 04:11:23;;;;;;;12.45;2.58;;;7.90;96.10;;;;;;5030922;28;20109;-62
2022/02/23 04:13:49;;;;;;;15.52;2.95;;;7.90;96.10;;;;;;5033567;28;20124;-62
2022/02/23 04:16:15;;;;;;;11.48;2.33;;;7.90;96.10;;;;;;5049279;28;20025;-62
2022/02/23 04:18:41;;;;;;;8.20;2.45;;;7.90;96.20;;;;;;5052442;28;20067;-62
2022/02/23 04:21:07;;;;;;;7.72;2.03;;;7.80;96.20;;;;;;5048092;28;20033;-63
2022/02/23 04:23:33;;;;;;;6.50;2.58;;;7.80;96.20;;;;;;5043416;28;20087;-62
2022/02/23 04:25:58;;;;;;;10.70;2.25;;;7.80;96.20;;;;;;5049086;28;20392;-62
2022/02/23 04:28:26;;;;;;;8.88;2.20;;;7.80;96.20;;;;;;5033572;28;20434;-62
2022/02/23 04:30:52;;;;;;;7.25;2.33;;;7.70;96.30;;;;;;5032604;28;20030;-62
2022/02/23 04:33:18;;;;;;;7.18;2.28;;;7.70;96.30;;;;;;5044981;28;20040;-62
2022/02/23 04:35:44;;;;;;;9.65;2.58;;;7.60;96.30;;;;;;5049760;28;20393;-62
2022/02/23 04:38:09;;;;;;;8.27;2.45;;;7.60;96.40;;;;;;5037832;28;20025;-62
2022/02/23 04:40:35;;;;;;;13.57;3.30;;;7.60;96.40;;;;;;5035917;28;20033;-62
2022/02/23 04:43:00;;;;;;;12.93;2.72;;;7.60;96.50;;;;;;5030912;28;20026;-62
2022/02/23 04:45:26;;;;;;;9.30;2.70;;;7.60;96.70;;;;;;5013957;28;20636;-63
2022/02/23 04:47:51;;;;;;;16.25;4.15;;;7.50;96.60;;;;;;5039996;28;20025;-62
2022/02/23 04:50:17;;;;;;;18.60;3.47;;;7.50;96.80;;;;;;5049981;28;20036;-62
2022/02/23 04:52:43;;;;;;;15.23;3.28;;;7.50;96.90;;;;;;5050529;28;20072;-62
2022/02/23 04:55:08;;;;;;;23.25;4.85;;;7.40;97.00;;;;;;5041958;28;20604;-63
2022/02/23 04:57:34;;;;;;;18.25;5.05;;;7.40;97.00;;;;;;5030692;28;20060;-62
2022/02/23 04:59:59;;;;;;;17.17;4.75;;;7.40;97.10;;;;;;5013120;28;20122;-62
2022/02/23 05:02:25;;;;;;;14.15;3.72;;;7.40;97.10;;;;;;5036662;28;20609;-62
2022/02/23 05:04:50;;;;;;;15.60;4.20;;;7.30;97.50;;;;;;5049614;28;20028;-63
2022/02/23 05:07:16;;;;;;;18.30;3.10;;;7.30;97.50;;;;;;5049781;28;20024;-62
2022/02/23 05:09:42;;;;;;;21.25;4.75;;;7.30;97.40;;;;;;5046813;28;20033;-62
2022/02/23 05:12:08;;;;;;;13.60;3.53;;;7.30;97.40;;;;;;5030476;28;20036;-63
2022/02/23 05:14:34;;;;;;;15.82;4.03;;;7.40;97.40;;;;;;5032574;28;20038;-62
2022/02/23 05:16:59;;;;;;;12.77;3.40;;;7.40;97.40;;;;;;5050872;28;20117;-63
2022/02/23 05:19:25;;;;;;;14.10;3.78;;;7.40;97.30;;;;;;5049242;28;20028;-62
2022/02/23 05:21:50;;;;;;;21.52;3.13;;;7.40;97.30;;;;;;5033099;28;20616;-62
2022/02/23 05:24:16;;;;;;;17.60;5.05;;;7.40;97.30;;;;;;5032418;28;20033;-62
2022/02/23 05:26:41;;;;;;;19.02;3.92;;;7.40;97.30;;;;;;5034295;28;20381;-63
2022/02/23 05:29:07;;;;;;;19.15;3.83;;;7.40;97.30;;;;;;5034367;28;20376;-62
2022/02/23 05:31:32;;;;;;;17.92;4.93;;;7.40;97.30;;;;;;5051799;28;20384;-62
2022/02/23 05:33:58;;;;;;;13.65;4.13;;;7.40;97.30;;;;;;5053995;28;20048;-63
2022/02/23 05:36:23;;;;;;;14.15;3.72;;;7.40;97.30;;;;;;5046177;28;20036;-62
2022/02/23 05:38:49;;;;;;;16.40;3.38;;;7.40;97.30;;;;;;5052350;28;20403;-63
2022/02/23 05:41:15;;;;;;;15.35;3.38;;;7.40;97.30;;;;;;5045798;28;20030;-62
2022/02/23 05:43:40;;;;;;;14.70;3.95;;;7.30;97.30;;;;;;5034006;28;20021;-62
2022/02/23 05:46:06;;;;;;;15.57;3.20;;;7.30;97.30;;;;;;5038194;28;20385;-62
2022/02/23 05:48:31;;;;;;;21.20;3.92;;;7.30;97.30;;;;;;5034034;28;20029;-62
2022/02/23 05:50:57;;;;;;;14.73;4.28;;;7.30;97.30;;;;;;5051646;28;20090;-63
2022/02/23 05:53:22;;;;;;;21.55;4.18;;;7.30;97.40;;;;;;5053221;28;20025;-63
2022/02/23 05:55:48;;;;;;;15.77;3.60;;;7.30;97.50;;;;;;5051412;28;20033;-67
2022/02/23 05:58:13;;;;;;;20.23;3.97;;;7.30;97.30;;;;;;5042235;28;20033;-65
2022/02/23 06:00:39;;;;;;;12.20;3.80;;;7.30;97.30;;;;;;5042666;28;20032;-64
2022/02/23 06:03:08;;;;;;;21.48;4.50;;;7.30;97.40;;;;;;5051620;28;20044;-64
2022/02/23 06:05:34;;;;;;;22.23;4.10;;;7.30;97.50;;;;;;5047005;28;20020;-64
2022/02/23 06:07:59;;;;;;;14.75;4.38;;;7.30;97.50;;;;;;5053472;28;20383;-65
2022/02/23 06:10:26;;;;;;;14.23;3.60;;;7.30;97.50;;;;;;5043650;28;20061;-64
2022/02/23 06:12:51;;;;;;;16.25;4.13;;;7.40;97.50;;;;;;5039785;28;20036;-64
2022/02/23 06:15:17;;;;;;;16.13;4.05;;;7.40;97.50;;;;;;5052222;28;20037;-65
2022/02/23 06:17:42;;;;;;;17.70;4.22;;;7.40;97.50;;;;;;5048677;28;20351;-65
2022/02/23 06:20:08;;;;;;;14.13;4.75;;;7.40;97.50;;;;;;5039493;28;20444;-65
2022/02/23 06:22:34;;;;;;;42.10;6.93;;;7.50;97.50;;;;;;5050543;28;20082;-65
2022/02/23 06:24:59;;;;;;;13.40;3.28;;;7.50;97.40;;;;;;5033550;28;20025;-65
2022/02/23 06:27:25;;;;;;;18.88;3.58;;;7.50;97.40;;;;;;5033415;28;20033;-65
2022/02/23 06:29:50;;;;;;;14.93;4.72;;;7.60;97.40;;;;;;5047681;28;20025;-65
2022/02/23 06:32:16;;;;;;;10.75;4.00;;;7.60;97.30;;;;;;5032448;28;20136;-64
2022/02/23 06:34:42;;;;;;;46.28;6.28;;;7.60;97.30;;;;;;5033413;28;20040;-65
2022/02/23 06:37:07;;;;;;;20.00;3.45;;;7.70;97.30;;;;;;5015478;28;20554;-65
2022/02/23 06:39:37;;;;;;;14.85;3.97;;;7.70;97.30;;;;;;5032709;28;20023;-65
2022/02/23 06:42:03;;;;;;;16.98;4.20;;;7.80;97.20;;;;;;5052886;28;20100;-65
2022/02/23 06:44:30;;;;;;;15.57;4.18;;;7.80;97.20;;;;;;5034276;28;20037;-64
2022/02/23 06:46:59;;;;;;;16.15;3.67;;;7.80;97.10;;;;;;5048949;28;20018;-64
2022/02/23 06:49:25;;;;;;;16.98;3.33;;;7.80;97.20;;;;;;5042844;28;20071;-64
2022/02/23 06:51:57;;;;;;;18.40;3.50;;;7.80;97.20;;;;;;5027278;28;20013;-64
2022/02/23 06:54:24;;;;;;;18.25;3.67;;;7.80;97.10;;;;;;5031882;28;20629;-63
2022/02/23 06:56:50;;;;;;;13.35;4.22;;;7.90;97.40;;;;;;5038456;28;20029;-63
2022/02/23 06:59:16;;;;;;;21.30;4.10;;;7.90;97.20;;;;;;5031422;28;20033;-64
2022/02/23 07:01:42;;;;;;;17.05;4.55;;;7.90;97.20;;;;;;5039009;28;20033;-64
2022/02/23 07:04:08;;;;;;;15.75;4.18;;;7.90;97.20;;;;;;5050145;28;20043;-64
2022/02/23 07:06:33;;;;;;;17.40;3.60;;;8.00;97.10;;;;;;5034117;28;20032;-64
2022/02/23 07:09:00;;;;;;;16.85;4.30;;;8.00;97.00;;;;;;5044869;28;20036;-63
2022/02/23 07:11:26;;;;;;;19.05;3.97;;;8.00;97.00;;;;;;5049084;28;20681;-64
2022/02/23 07:13:52;;;;;;;18.02;3.15;;;8.00;97.20;;;;;;5037223;28;20041;-64
2022/02/23 07:16:23;;;;;;;18.85;4.30;;;8.00;97.00;;;;;;5041986;28;20029;-64
2022/02/23 07:18:50;;;;;;;17.02;4.00;;;8.00;96.90;;;;;;5041523;28;20037;-64
2022/02/23 07:21:16;;;;;;;18.80;3.92;;;8.00;96.90;;;;;;5044847;28;20108;-64
2022/02/23 07:23:41;;;;;;;18.35;4.60;;;8.00;96.90;;;;;;5053296;28;20171;-64
2022/02/23 07:26:07;;;;;;;15.70;5.43;;;8.00;96.80;;;;;;5040150;28;20037;-64
2022/02/23 07:28:33;;;;;;;13.27;3.90;;;8.10;96.80;;;;;;5040914;28;20095;-64
2022/02/23 07:30:58;;;;;;;14.05;3.85;;;8.10;96.80;;;;;;5033227;28;20047;-64
2022/02/23 07:33:23;;;;;;;15.60;4.40;;;8.10;96.60;;;;;;5031905;28;20056;-63
2022/02/23 07:35:49;;;;;;;15.55;3.92;;;8.10;96.70;;;;;;5042179;28;20048;-63
2022/02/23 07:38:15;;;;;;;14.52;3.20;;;8.10;96.70;;;;;;5038757;28;20125;-63
2022/02/23 07:40:41;;;;;;;18.67;3.88;;;8.10;96.60;;;;;;5024699;28;20111;-63
2022/02/23 07:43:07;;;;;;;22.05;5.05;;;8.20;96.60;;;;;;5049602;28;20104;-63
2022/02/23 07:45:36;;;;;;;15.18;3.58;;;8.10;96.50;;;;;;5047775;28;20109;-63
2022/02/23 07:48:03;;;;;;;17.17;3.20;;;8.20;96.50;;;;;;5036897;28;20109;-63
2022/02/23 07:50:30;;;;;;;12.75;2.95;;;8.20;96.50;;;;;;5044570;28;20492;-63
2022/02/23 07:52:56;;;;;;;16.02;3.53;;;8.20;96.40;;;;;;5033443;28;20064;-63
2022/02/23 07:55:24;;;;;;;14.45;3.85;;;8.20;96.40;;;;;;5045821;28;20060;-63
2022/02/23 07:57:50;;;;;;;16.73;3.42;;;8.30;96.30;;;;;;5031514;28;20067;-63
2022/02/23 08:00:18;;;;;;;15.40;4.05;;;8.30;96.30;;;;;;5049043;28;20533;-63
2022/02/23 08:02:44;;;;;;;12.48;3.80;;;8.30;96.30;;;;;;5049235;28;20522;-62
2022/02/23 08:05:09;;;;;;;15.23;3.30;;;8.40;96.20;;;;;;5048990;28;20029;-62
2022/02/23 08:07:35;;;;;;;15.52;3.47;;;8.40;96.10;;;;;;5038755;28;20116;-64
2022/02/23 08:10:00;;;;;;;20.67;3.97;;;8.50;96.10;;;;;;5038816;28;20452;-63
2022/02/23 08:12:26;;;;;;;14.73;3.40;;;8.60;96.10;;;;;;5030722;28;20022;-63
2022/02/23 08:14:54;;;;;;;14.07;3.30;;;8.70;96.00;;;;;;5044475;28;20037;-64
2022/02/23 08:20:06;;;;;;;16.20;4.00;;;8.80;95.90;;;;;;5045807;28;20029;-64
2022/02/23 08:22:32;;;;;;;11.85;3.22;;;8.80;95.70;;;;;;5048518;28;20080;-63
2022/02/23 08:24:58;;;;;;;17.83;4.28;;;8.90;95.70;;;;;;5048025;28;20033;-65
2022/02/23 08:27:28;;;;;;;12.30;3.17;;;8.90;95.50;;;;;;5034544;28;20108;-64
2022/02/23 08:29:54;;;;;;;14.20;3.22;;;9.00;95.00;;;;;;5043608;28;20025;-64
2022/02/23 08:32:22;;;;;;;17.30;4.30;;;9.00;95.20;;;;;;5049385;28;20039;-64
2022/02/23 08:34:49;;;;;;;18.23;3.70;;;9.00;95.20;;;;;;5044214;28;20054;-64
2022/02/23 08:37:16;;;;;;;12.85;3.72;;;9.10;95.10;;;;;;5049915;28;20056;-64
2022/02/23 08:39:42;;;;;;;13.77;3.38;;;9.20;94.90;;;;;;5043584;28;20029;-64
2022/02/23 08:42:12;;;;;;;18.05;4.47;;;9.20;95.00;;;;;;5053659;28;20067;-64
2022/02/23 08:44:38;;;;;;;10.10;3.15;;;9.20;94.90;;;;;;5046621;28;20025;-64
2022/02/23 08:47:04;;;;;;;11.80;3.03;;;9.20;94.60;;;;;;5035521;28;20120;-65
2022/02/23 08:49:30;;;;;;;11.38;3.20;;;9.20;94.40;;;;;;5038704;28;20100;-65
2022/02/23 08:51:56;;;;;;;23.27;3.97;;;9.20;94.30;;;;;;5049031;28;20047;-65
2022/02/23 08:54:22;;;;;;;14.93;3.25;;;9.20;94.40;;;;;;5045983;28;20055;-65
2022/02/23 08:56:47;;;;;;;15.68;3.75;;;9.20;94.40;;;;;;5039148;28;20108;-65
2022/02/23 08:59:14;;;;;;;14.82;3.85;;;9.30;94.30;;;;;;5044950;28;20025;-65
2022/02/23 09:01:39;;;;;;;12.15;2.97;;;9.40;94.20;;;;;;5035686;28;20049;-65
2022/02/23 09:04:05;;;;;;;13.77;4.22;;;9.40;94.00;;;;;;5060780;28;20036;-65
2022/02/23 09:06:33;;;;;;;14.50;3.53;;;9.30;93.70;;;;;;5056096;28;20025;-65
2022/02/23 09:08:59;;;;;;;17.52;4.35;;;9.40;93.60;;;;;;5053036;28;20610;-64
2022/02/23 09:11:25;;;;;;;11.38;3.00;;;9.40;93.60;;;;;;5053031;28;20021;-64
2022/02/23 09:13:50;;;;;;;11.80;3.03;;;9.40;93.60;;;;;;5062357;28;20028;-64
2022/02/23 09:16:16;;;;;;;17.02;3.45;;;9.40;93.50;;;;;;5064463;28;20091;-63
2022/02/23 09:18:42;;;;;;;16.92;3.20;;;9.40;93.50;;;;;;5052776;28;20101;-64
2022/02/23 09:21:08;;;;;;;12.38;2.90;;;9.40;93.60;;;;;;5053887;28;20025;-64
2022/02/23 09:23:34;;;;;;;23.67;5.05;;;9.40;93.50;;;;;;5053930;28;20025;-64
2022/02/23 09:26:00;;;;;;;10.48;3.05;;;9.50;93.00;;;;;;5054756;28;20475;-64
2022/02/23 09:28:25;;;;;;;12.02;3.17;;;9.60;93.30;;;;;;5053269;28;20029;-64
2022/02/23 09:30:51;;;;;;;10.10;3.40;;;9.70;93.10;;;;;;5052565;28;20506;-64
2022/02/23 09:33:16;;;;;;;12.23;3.45;;;9.80;93.00;;;;;;5048697;28;20140;-64
2022/02/23 09:35:45;;;;;;;9.10;3.88;;;9.80;92.90;;;;;;5049055;28;20435;-64
2022/02/23 09:38:12;;;;;;;9.10;2.90;;;9.90;92.70;;;;;;5056403;28;20021;-64
2022/02/23 09:40:41;;;;;;;9.32;2.75;;;10.00;92.80;;;;;;5038922;28;20427;-63
2022/02/23 09:43:07;;;;;;;16.45;3.67;;;10.00;92.10;;;;;;5054952;28;20056;-64
2022/02/23 09:45:35;;;;;;;13.57;3.55;;;10.10;92.50;;;;;;5039092;28;20040;-66
2022/02/23 09:48:01;;;;;;;12.93;3.42;;;10.10;92.10;;;;;;5051413;28;20025;-64
2022/02/23 09:50:26;;;;;;;9.98;3.13;;;10.20;92.20;;;;;;5049868;28;20024;-64
2022/02/23 09:52:53;;;;;;;13.55;3.78;;;10.20;92.00;;;;;;5034043;28;20053;-64
2022/02/23 09:55:20;;;;;;;9.30;2.55;;;10.30;91.90;;;;;;5044902;28;20395;-65
2022/02/23 09:57:46;;;;;;;9.30;3.20;;;10.30;91.90;;;;;;5041324;28;20038;-65
2022/02/23 10:00:13;;;;;;;10.57;2.67;;;10.30;91.60;;;;;;5035955;28;20040;-64
2022/02/23 10:02:38;;;;;;;12.45;3.40;;;10.30;91.20;;;;;;5049258;28;20045;-63
2022/02/23 10:05:06;;;;;;;10.73;3.65;;;10.30;91.10;;;;;;5045989;28;20021;-62
2022/02/23 10:07:38;;;;;;;11.70;3.20;;;10.30;91.10;;;;;;5051580;28;20416;-63
2022/02/23 10:10:08;;;;;;;11.50;3.28;;;10.30;91.20;;;;;;5047866;28;20094;-63
2022/02/23 10:12:36;;;;;;;14.25;3.85;;;10.30;91.10;;;;;;5044461;28;20057;-64
2022/02/23 10:15:16;;;;;;;14.32;3.17;;;10.30;90.80;;;;;;5046331;28;20078;-63
2022/02/23 10:17:44;;;;;;;7.32;2.90;;;10.30;91.10;;;;;;5058239;28;20020;-64
2022/02/23 10:20:25;;;;;;;13.60;3.13;;;10.40;91.00;;;;;;5043966;28;20112;-64
2022/02/23 10:22:55;;;;;;;9.48;3.00;;;10.30;90.90;;;;;;5033509;28;20032;-64
2022/02/23 10:25:23;;;;;;;11.35;3.10;;;10.30;90.50;;;;;;5036353;28;20094;-64
2022/02/23 10:27:49;;;;;;;15.05;3.45;;;10.30;90.30;;;;;;5033273;28;20148;-63
2022/02/23 10:30:26;;;;;;;11.18;2.72;;;10.30;90.40;;;;;;5039932;28;20028;-63
2022/02/23 10:32:56;;;;;;;8.38;3.03;;;10.40;90.50;;;;;;5049626;28;20057;-64
2022/02/23 10:35:28;;;;;;;11.45;3.05;;;10.40;90.20;;;;;;5050994;28;20399;-64
2022/02/23 10:37:54;;;;;;;11.55;3.35;;;10.50;90.00;;;;;;5053264;28;20055;-63
2022/02/23 10:40:19;;;;;;;10.27;3.35;;;10.50;89.80;;;;;;5043685;28;20029;-63
2022/02/23 10:42:45;;;;;;;9.63;2.97;;;10.50;89.50;;;;;;5032573;28;20022;-64
2022/02/23 10:45:17;;;;;;;8.63;2.58;;;10.60;89.30;;;;;;5039184;28;20033;-64
2022/02/23 10:47:46;;;;;;;11.75;2.95;;;10.60;89.20;;;;;;5051134;28;20535;-64
2022/02/23 10:50:24;;;;;;;11.43;2.75;;;10.70;89.10;;;;;;5048038;28;20377;-64
2022/02/23 10:52:57;;;;;;;11.10;3.25;;;10.80;89.40;;;;;;5048733;28;20199;-64
2022/02/23 10:55:34;;;;;;;12.10;3.42;;;10.80;87.80;;;;;;5042364;28;20396;-64
2022/02/23 10:58:03;;;;;;;11.70;3.20;;;10.80;87.70;;;;;;5032483;28;20025;-64
2022/02/23 11:00:34;;;;;;;11.75;3.45;;;10.90;85.80;;;;;;5042247;28;20427;-64
2022/02/23 11:03:01;;;;;;;8.73;2.55;;;10.80;86.20;;;;;;5052075;28;20492;-64
2022/02/23 11:05:27;;;;;;;19.05;3.85;;;10.80;85.80;;;;;;5050767;28;20507;-64
2022/02/23 11:07:55;;;;;;;14.02;2.75;;;10.80;84.70;;;;;;5052455;28;20033;-63
2022/02/23 11:10:21;;;;;;;6.75;2.80;;;10.70;84.60;;;;;;5047100;28;20025;-64
2022/02/23 11:12:52;;;;;;;11.88;2.67;;;10.60;85.40;;;;;;5052448;28;20040;-64
2022/02/23 11:15:20;;;;;;;14.05;3.47;;;10.70;86.40;;;;;;5042601;28;20064;-64
2022/02/23 11:17:48;;;;;;;11.18;3.08;;;10.70;85.70;;;;;;5032099;28;20029;-64
2022/02/23 11:20:28;;;;;;;7.47;2.85;;;10.70;85.60;;;;;;5039032;28;20025;-64
2022/02/23 11:22:59;;;;;;;12.85;2.63;;;10.70;85.80;;;;;;5052116;28;20381;-64
2022/02/23 11:25:26;;;;;;;16.25;3.22;;;10.80;85.80;;;;;;5045266;28;20508;-64
2022/02/23 11:28:01;;;;;;;10.15;3.17;;;10.80;85.30;;;;;;5047276;28;20037;-64
2022/02/23 11:30:29;;;;;;;8.57;2.40;;;10.80;85.00;;;;;;5041863;28;20485;-64
2022/02/23 11:32:55;;;;;;;8.90;2.85;;;10.80;85.30;;;;;;5032105;28;20528;-63
2022/02/23 11:35:40;;;;;;;14.77;3.38;;;10.90;84.60;;;;;;5039906;28;20061;-64
2022/02/23 11:38:07;;;;;;;13.00;3.30;;;10.90;84.20;;;;;;5033913;28;20033;-64
2022/02/23 11:40:51;;;;;;;14.50;3.22;;;10.80;84.70;;;;;;5043168;28;20032;-64
2022/02/23 11:43:27;;;;;;;13.32;3.90;;;10.90;84.40;;;;;;5048477;28;20045;-64
2022/02/23 11:46:30;;;;;;;11.32;3.60;;;10.90;84.80;;;;;;5045150;28;20545;-64
2022/02/23 11:52:34;;;;;;;9.55;2.88;;;10.90;84.50;;;;;;5031723;28;20055;-64
2022/02/23 11:55:11;;;;;;;14.93;2.60;;;10.80;84.40;;;;;;5037643;28;20121;-63
2022/02/23 12:00:47;;;;;;;9.15;2.75;;;10.80;84.30;;;;;;5039265;28;20038;-64
2022/02/23 12:03:26;;;;;;;10.93;3.13;;;10.80;85.00;;;;;;5033111;28;20042;-64
2022/02/23 12:05:59;;;;;;;11.52;2.88;;;10.80;84.20;;;;;;5049305;28;20040;-64
2022/02/23 12:08:37;;;;;;;8.23;2.67;;;10.90;83.50;;;;;;5051381;28;20024;-65
2022/02/23 12:11:05;;;;;;;7.65;2.22;;;10.90;84.10;;;;;;5050185;28;20087;-64
2022/02/23 12:13:39;;;;;;;10.23;2.95;;;11.00;84.40;;;;;;5050213;28;20134;-64
2022/02/23 12:16:21;;;;;;;11.43;2.92;;;11.10;83.70;;;;;;5044985;28;20041;-65
2022/02/23 12:18:52;;;;;;;9.55;2.50;;;11.20;83.60;;;;;;5050917;28;20024;-64
2022/02/23 12:21:19;;;;;;;7.35;2.38;;;11.30;83.30;;;;;;5049635;28;20032;-64
2022/02/23 12:23:48;;;;;;;9.18;2.58;;;11.30;82.60;;;;;;5050980;28;20044;-64
2022/02/23 12:26:17;;;;;;;10.10;3.00;;;11.50;82.80;;;;;;5037869;28;20080;-64
2022/02/23 12:28:47;;;;;;;8.38;2.67;;;11.50;82.10;;;;;;5030730;28;20056;-64
2022/02/23 12:31:22;;;;;;;9.63;2.40;;;11.60;82.10;;;;;;5029531;28;20353;-64
2022/02/23 12:33:54;;;;;;;11.45;2.78;;;11.60;82.10;;;;;;5032816;28;20527;-64
2022/02/23 12:36:43;;;;;;;6.57;2.28;;;11.60;81.70;;;;;;5033345;28;20037;-64
2022/02/23 12:39:12;;;;;;;10.98;2.20;;;11.70;81.60;;;;;;5038263;28;20390;-64
2022/02/23 12:41:38;;;;;;;9.00;2.60;;;11.80;81.80;;;;;;5057841;28;20039;-64
2022/02/23 12:44:07;;;;;;;8.38;2.30;;;11.70;81.60;;;;;;5051164;28;20055;-64
2022/02/23 12:46:42;;;;;;;10.57;2.67;;;11.80;80.90;;;;;;5044392;28;20021;-65
2022/02/23 12:49:08;;;;;;;10.25;2.70;;;11.80;80.70;;;;;;5053054;28;20021;-64
2022/02/23 12:51:36;;;;;;;10.57;3.00;;;11.80;80.50;;;;;;5051628;28;20025;-63
2022/02/23 12:54:04;;;;;;;9.90;2.60;;;11.80;80.70;;;;;;5033036;28;20119;-63